METAR AND TAF INFORMATION
METAR FOR EPKK
ADDS - METARS form results

(0250 UTC 08 April 2020)
Data provider http://aviationweather.gov/metar/data/
 
METAR text: EPKK 080230Z 25002KT CAVOK 02/M05 Q1031
Conditions at: EPKK (KRAKOW/BALICE , PL) observed 0230 UTC 08 April 2020
Temperature: 2.0°C (36°F)
Dewpoint: -5.0°C (23°F) [RH = 60%]
Pressure (altimeter): 30.44 inches Hg (1031.0 mb)
Winds: from the WSW (250 degrees) at 2 MPH (2 knots; 1.0 m/s)
Visibility: 6 or more miles (10+ km)
Ceiling: ceiling and visibility are OK
Clouds: unknown
Weather: no significant weather observed at this time

METAR text: EPKK 080200Z 23002KT CAVOK 02/M05 Q1031
Conditions at: EPKK (KRAKOW/BALICE , PL) observed 0200 UTC 08 April 2020
Temperature: 2.0°C (36°F)
Dewpoint: -5.0°C (23°F) [RH = 60%]
Pressure (altimeter): 30.44 inches Hg (1031.0 mb)
Winds: from the SW (230 degrees) at 2 MPH (2 knots; 1.0 m/s)
Visibility: 6 or more miles (10+ km)
Ceiling: ceiling and visibility are OK
Clouds: unknown
Weather: no significant weather observed at this time

Forecast for: EPKK (KRAKOW/BALICE , PL)
Text: TAF EPKK 080230Z 0803/0903 25003KT CAVOK
Forecast period: 0300 UTC 08 April 2020 to 0300 UTC 09 April 2020
Forecast type: FROM: standard forecast or significant change
Winds: from the WSW (250 degrees) at 3 MPH (3 knots; 1.5 m/s)
Visibility: 6 or more miles 10+ km)
Ceiling: unknown
Clouds: missing
Weather: NSW  (no significant weather)

 AIRPORT MAP

 RUNWAY INFORMATION
Runway 07 Runway length 8366 ft Runway width 197 ft
Runway elevation 792 ft Runway displaced threshold 0 ft Runway heading 78
Runway 25 Runway length 8366 ft Runway width 197 ft
Runway elevation 779 ft Runway displaced threshold 784 ft Runway heading 258

 AIRPORT FREQUENCIES
Type APP Name KRAKOW APP Frequency 121.075 MHZ
Type ATIS Name ATIS Frequency 126.125 MHZ
Type DIR Name KRAKOW DIR Frequency 123.8 MHZ
Type TWR Name KRAKOW DEL Frequency 118.1 MHZ
Type TWR Name KRAKOW TWR Frequency 123.25 MHZ

 AIRPORT NEAR NAVIGATION AIDS
Type NDB Name Krakow Frequency 353 KHZ



Powered by Virtual Airlines Manager [v2.6.2]